createdAt,value
2023-11-23T00:01:38.930Z,91.42
2023-11-23T00:04:06.719Z,91.60
2023-11-23T00:06:34.591Z,92.15
2023-11-23T00:09:01.942Z,92.23
2023-11-23T00:11:29.635Z,92.48
2023-11-23T00:13:57.823Z,92.65
2023-11-23T00:16:25.200Z,92.51
2023-11-23T00:18:53.385Z,91.81
2023-11-23T00:21:20.728Z,92.11
2023-11-23T00:23:48.096Z,92.53
2023-11-23T00:26:16.204Z,92.43
2023-11-23T00:28:45.760Z,92.61
2023-11-23T00:31:14.467Z,93.03
2023-11-23T00:33:42.308Z,93.00
2023-11-23T00:36:10.615Z,92.60
2023-11-23T00:38:42.302Z,92.88
2023-11-23T00:41:12.115Z,92.61
2023-11-23T00:43:39.936Z,92.78
2023-11-23T00:46:07.422Z,92.81
2023-11-23T00:48:35.880Z,92.18
2023-11-23T00:51:04.279Z,92.11
2023-11-23T00:53:31.811Z,92.13
2023-11-23T00:55:59.860Z,92.40
2023-11-23T00:58:27.138Z,92.46
2023-11-23T01:00:57.376Z,93.00
2023-11-23T01:03:26.071Z,93.61
2023-11-23T01:05:54.942Z,93.22
2023-11-23T01:08:22.241Z,93.26
2023-11-23T01:10:50.241Z,93.31
2023-11-23T01:13:19.169Z,93.06
2023-11-23T01:15:46.582Z,93.08
2023-11-23T01:18:14.217Z,92.58
2023-11-23T01:20:42.076Z,92.85
2023-11-23T01:23:09.882Z,92.96
2023-11-23T01:25:38.060Z,93.11
2023-11-23T01:28:05.520Z,93.30
2023-11-23T01:30:33.614Z,93.20
2023-11-23T01:33:01.280Z,93.78
2023-11-23T01:35:29.077Z,92.97
2023-11-23T01:37:56.366Z,92.77
2023-11-23T01:40:24.469Z,93.08
2023-11-23T01:42:51.785Z,92.29
2023-11-23T01:45:19.194Z,91.71
2023-11-23T01:47:47.339Z,91.44
2023-11-23T01:50:15.628Z,90.03
2023-11-23T01:52:43.429Z,88.67
2023-11-23T01:55:11.007Z,87.44
2023-11-23T01:57:41.898Z,86.29
2023-11-23T02:00:10.143Z,86.55
2023-11-23T02:02:39.489Z,85.03
2023-11-23T02:05:07.898Z,84.42
2023-11-23T02:07:35.687Z,84.27
2023-11-23T02:10:04.866Z,84.39
2023-11-23T02:12:34.198Z,84.02
2023-11-23T02:15:01.915Z,83.76
2023-11-23T02:17:33.402Z,83.63
2023-11-23T02:20:01.261Z,83.89
2023-11-23T02:22:29.765Z,84.58
2023-11-23T02:24:57.102Z,84.58
2023-11-23T02:27:24.365Z,84.62
2023-11-23T02:29:51.967Z,84.78
2023-11-23T02:32:20.290Z,84.82
2023-11-23T02:34:48.165Z,84.31
2023-11-23T02:37:17.792Z,83.51
2023-11-23T02:39:47.376Z,83.59
2023-11-23T02:42:14.720Z,83.21
2023-11-23T02:44:42.514Z,83.10
2023-11-23T02:47:09.954Z,83.14
2023-11-23T02:49:37.908Z,83.59
2023-11-23T02:52:06.122Z,84.14
2023-11-23T02:54:34.016Z,84.61
2023-11-23T02:57:01.837Z,86.51
2023-11-23T02:59:29.471Z,86.15
2023-11-23T03:01:59.811Z,86.10
2023-11-23T03:04:27.314Z,86.48
2023-11-23T03:06:55.983Z,86.67
2023-11-23T03:09:24.611Z,93.78
2023-11-23T03:11:52.527Z,86.99
2023-11-23T03:14:20.274Z,86.61
2023-11-23T03:16:49.411Z,86.54
2023-11-23T03:19:19.041Z,86.51
2023-11-23T03:21:47.116Z,84.58
2023-11-23T03:24:14.982Z,84.64
2023-11-23T03:26:42.853Z,85.81
2023-11-23T03:29:12.076Z,84.26
2023-11-23T03:31:42.418Z,84.12
2023-11-23T03:34:10.638Z,84.42
2023-11-23T03:36:39.363Z,83.81
2023-11-23T03:39:10.944Z,84.38
2023-11-23T03:41:38.565Z,84.92
2023-11-23T03:44:05.907Z,88.61
2023-11-23T03:46:33.671Z,85.54
2023-11-23T03:49:01.260Z,86.62
2023-11-23T03:51:32.642Z,85.75
2023-11-23T03:54:02.405Z,85.20
2023-11-23T03:56:31.413Z,86.72
2023-11-23T03:58:58.752Z,85.23
2023-11-23T04:01:26.103Z,85.49
2023-11-23T04:03:53.860Z,84.92
2023-11-23T04:06:21.795Z,84.94
2023-11-23T04:08:49.850Z,85.82
2023-11-23T04:11:17.999Z,86.51
2023-11-23T04:13:55.351Z,87.36
2023-11-23T04:16:22.994Z,87.58
2023-11-23T04:18:50.274Z,88.17
2023-11-23T04:21:17.606Z,88.27
2023-11-23T04:23:47.185Z,88.40
2023-11-23T04:26:14.507Z,88.75
2023-11-23T04:28:41.781Z,88.80
2023-11-23T04:31:09.915Z,89.14
2023-11-23T04:33:37.505Z,89.45
2023-11-23T04:36:12.386Z,89.31
2023-11-23T04:38:40.663Z,88.91
2023-11-23T04:41:07.960Z,89.15
2023-11-23T04:43:36.133Z,89.38
2023-11-23T04:46:03.890Z,89.98
2023-11-23T04:48:31.788Z,89.96
2023-11-23T04:50:59.688Z,90.03
2023-11-23T04:53:31.176Z,90.47
2023-11-23T04:55:58.952Z,90.67
2023-11-23T04:58:28.115Z,90.95
2023-11-23T05:00:56.525Z,91.64
2023-11-23T05:03:24.832Z,92.71
2023-11-23T05:05:53.890Z,91.54
2023-11-23T05:08:21.766Z,90.67
2023-11-23T05:10:49.618Z,90.31
2023-11-23T05:13:17.743Z,89.94
2023-11-23T05:15:45.537Z,90.32
2023-11-23T05:18:15.301Z,89.97
2023-11-23T05:20:43.446Z,91.18
2023-11-23T05:23:11.291Z,89.72
2023-11-23T05:25:39.243Z,88.64
2023-11-23T05:28:10.731Z,88.52
2023-11-23T05:30:39.910Z,88.34
2023-11-23T05:33:08.719Z,87.85
2023-11-23T05:35:37.986Z,88.78
2023-11-23T05:38:06.851Z,89.50
2023-11-23T05:40:36.228Z,89.97
2023-11-23T05:43:06.189Z,89.54
2023-11-23T05:45:35.242Z,89.16
2023-11-23T05:48:04.195Z,88.98
2023-11-23T05:50:31.554Z,88.97
2023-11-23T05:52:59.246Z,89.67
2023-11-23T05:55:26.699Z,89.41
2023-11-23T05:57:57.508Z,90.36
2023-11-23T06:00:26.113Z,90.66
2023-11-23T06:02:53.970Z,90.33
2023-11-23T06:05:21.334Z,90.75
2023-11-23T06:07:48.671Z,90.03
2023-11-23T06:10:16.527Z,89.57
2023-11-23T06:12:44.348Z,90.20
2023-11-23T06:15:12.240Z,90.48
2023-11-23T06:17:47.711Z,90.81
2023-11-23T06:20:15.521Z,89.67
2023-11-23T06:22:43.612Z,89.32
2023-11-23T06:25:13.583Z,89.21
2023-11-23T06:27:41.428Z,89.34
2023-11-23T06:30:10.913Z,89.74
2023-11-23T06:32:38.803Z,90.04
2023-11-23T06:35:08.401Z,90.00
2023-11-23T06:37:36.656Z,90.19
2023-11-23T06:40:04.621Z,90.46
2023-11-23T06:42:33.528Z,89.63
2023-11-23T06:45:02.683Z,90.03
2023-11-23T06:47:31.212Z,90.18
2023-11-23T06:49:58.777Z,90.13
2023-11-23T06:52:27.149Z,90.79
2023-11-23T06:54:54.460Z,90.73
2023-11-23T06:57:24.083Z,91.52
2023-11-23T06:59:56.455Z,92.14
2023-11-23T07:02:29.514Z,92.46
2023-11-23T07:04:57.851Z,92.36
2023-11-23T07:07:26.000Z,92.14
2023-11-23T07:09:55.874Z,92.45
2023-11-23T07:12:24.180Z,91.78
2023-11-23T07:14:53.389Z,92.45
2023-11-23T07:17:22.143Z,91.66
2023-11-23T07:19:50.417Z,90.36
2023-11-23T07:22:18.236Z,89.04
2023-11-23T07:24:46.044Z,88.89
2023-11-23T07:27:14.351Z,89.18
2023-11-23T07:29:41.644Z,89.19
2023-11-23T07:32:10.409Z,89.17
2023-11-23T07:34:41.707Z,93.49
2023-11-23T07:37:11.361Z,89.06
2023-11-23T07:39:39.485Z,90.00
2023-11-23T07:42:09.026Z,92.09
2023-11-23T07:44:38.341Z,91.86
2023-11-23T07:47:10.141Z,91.32
2023-11-23T07:49:38.051Z,89.61
2023-11-23T07:52:05.736Z,87.82
2023-11-23T07:54:33.580Z,87.81
2023-11-23T07:57:01.381Z,89.52
2023-11-23T07:59:30.488Z,89.13
2023-11-23T08:01:58.816Z,87.61
2023-11-23T08:04:30.052Z,87.86
2023-11-23T08:07:00.560Z,91.73
2023-11-23T08:09:29.134Z,85.45
2023-11-23T08:11:58.404Z,83.97
2023-11-23T08:14:26.346Z,83.58
2023-11-23T08:16:56.139Z,83.13
2023-11-23T08:19:26.521Z,85.27
2023-11-23T08:21:54.203Z,84.12
2023-11-23T08:24:28.859Z,82.90
2023-11-23T08:27:07.314Z,83.83
2023-11-23T08:29:37.013Z,89.08
2023-11-23T08:32:04.953Z,86.29
2023-11-23T08:34:32.367Z,84.53
2023-11-23T08:36:59.693Z,85.88
2023-11-23T08:39:41.267Z,85.16
2023-11-23T08:42:12.127Z,82.86
2023-11-23T08:44:41.357Z,85.52
2023-11-23T08:47:13.058Z,82.05
2023-11-23T08:49:42.509Z,83.35
2023-11-23T08:52:09.878Z,81.32
2023-11-23T08:54:40.317Z,81.24
2023-11-23T08:57:08.633Z,82.79
2023-11-23T08:59:38.774Z,83.05
2023-11-23T09:02:17.167Z,83.16
2023-11-23T09:04:49.328Z,89.51
2023-11-23T09:07:21.271Z,86.71
2023-11-23T09:09:49.078Z,83.05
2023-11-23T09:12:18.134Z,82.99
2023-11-23T09:14:49.515Z,90.33
2023-11-23T09:17:20.589Z,81.69
2023-11-23T09:19:49.847Z,84.83
2023-11-23T09:22:18.364Z,80.15
2023-11-23T09:24:46.501Z,82.37
2023-11-23T09:27:16.518Z,80.57
2023-11-23T09:29:43.810Z,79.45
2023-11-23T09:32:12.245Z,83.08
2023-11-23T09:34:41.693Z,82.26
2023-11-23T09:37:09.610Z,86.64
2023-11-23T09:39:39.827Z,94.84
2023-11-23T09:42:09.875Z,83.46
2023-11-23T09:44:39.150Z,84.90
2023-11-23T09:47:07.128Z,87.63
2023-11-23T09:49:36.703Z,86.17
2023-11-23T09:52:05.343Z,87.45
2023-11-23T09:54:34.200Z,87.94
2023-11-23T09:57:03.934Z,85.28
2023-11-23T09:59:32.165Z,84.90
2023-11-23T10:02:06.545Z,83.96
2023-11-23T10:04:35.165Z,85.34
2023-11-23T10:07:04.018Z,83.85
2023-11-23T10:09:35.018Z,89.59
2023-11-23T10:12:03.833Z,84.26
2023-11-23T10:14:31.435Z,85.54
2023-11-23T10:16:58.736Z,89.23
2023-11-23T10:19:26.416Z,84.77
2023-11-23T10:22:00.462Z,87.56
2023-11-23T10:24:30.879Z,85.73
2023-11-23T10:26:59.778Z,85.63
2023-11-23T10:29:30.321Z,86.04
2023-11-23T10:32:01.656Z,84.33
2023-11-23T10:34:32.671Z,84.99
2023-11-23T10:37:01.047Z,85.67
2023-11-23T10:39:29.588Z,87.33
2023-11-23T10:41:58.007Z,83.38
2023-11-23T10:44:30.131Z,83.07
2023-11-23T10:47:04.525Z,83.72
2023-11-23T10:49:33.937Z,86.30
2023-11-23T10:52:06.966Z,83.89
2023-11-23T10:54:35.333Z,82.28
2023-11-23T10:57:04.262Z,81.66
2023-11-23T10:59:34.051Z,81.33
2023-11-23T11:02:02.695Z,81.93
2023-11-23T11:04:30.788Z,81.20
2023-11-23T11:06:58.724Z,80.53
2023-11-23T11:09:30.343Z,81.33
2023-11-23T11:12:01.745Z,80.74
2023-11-23T11:14:33.945Z,82.63
2023-11-23T11:17:03.252Z,83.44
2023-11-23T11:19:41.799Z,85.42
2023-11-23T11:22:15.332Z,80.91
2023-11-23T11:24:46.276Z,81.77
2023-11-23T11:27:19.668Z,81.16
2023-11-23T11:29:52.919Z,83.31
2023-11-23T11:32:32.547Z,80.59
2023-11-23T11:35:02.229Z,80.81
2023-11-23T11:37:31.061Z,86.63
2023-11-23T11:39:58.818Z,92.56
2023-11-23T11:42:26.441Z,82.38
2023-11-23T11:44:54.944Z,84.30
2023-11-23T11:47:24.837Z,79.66
2023-11-23T11:49:53.440Z,76.18
2023-11-23T11:52:22.013Z,78.68
2023-11-23T11:54:50.908Z,89.57
2023-11-23T11:57:19.880Z,86.28
2023-11-23T11:59:47.950Z,81.69
2023-11-23T12:02:16.069Z,82.49
2023-11-23T12:04:44.680Z,77.58
2023-11-23T12:07:17.903Z,84.00
2023-11-23T12:09:47.759Z,80.88
2023-11-23T12:12:16.912Z,87.41
2023-11-23T12:14:45.239Z,82.84
2023-11-23T12:17:13.899Z,89.36
2023-11-23T12:19:54.561Z,80.71
2023-11-23T12:22:27.811Z,76.53
2023-11-23T12:25:00.422Z,88.02
2023-11-23T12:27:28.878Z,76.99
2023-11-23T12:29:56.321Z,80.46
2023-11-23T12:32:25.187Z,79.83
2023-11-23T12:34:52.910Z,80.65
2023-11-23T12:37:20.427Z,80.56
2023-11-23T12:39:51.147Z,80.17
2023-11-23T12:42:18.852Z,83.58
2023-11-23T12:44:47.583Z,82.31
2023-11-23T12:47:15.621Z,83.87
2023-11-23T12:49:46.741Z,80.51
2023-11-23T12:52:14.078Z,82.70
2023-11-23T12:54:43.727Z,81.44
2023-11-23T12:57:13.276Z,87.68
2023-11-23T12:59:42.214Z,88.52
2023-11-23T13:02:10.535Z,81.20
2023-11-23T13:04:42.212Z,82.99
2023-11-23T13:07:09.652Z,83.80
2023-11-23T13:09:37.694Z,83.06
2023-11-23T13:12:05.557Z,88.73
2023-11-23T13:14:34.333Z,83.14
2023-11-23T13:17:01.945Z,83.59
2023-11-23T13:19:37.655Z,87.16
2023-11-23T13:22:11.913Z,81.43
2023-11-23T13:24:40.727Z,80.44
2023-11-23T13:27:10.856Z,81.11
2023-11-23T13:29:38.535Z,82.80
2023-11-23T13:32:06.569Z,81.23
2023-11-23T13:34:35.333Z,88.03
2023-11-23T13:37:05.681Z,82.75
2023-11-23T13:39:37.033Z,80.85
2023-11-23T13:42:10.576Z,80.61
2023-11-23T13:44:39.078Z,86.20
2023-11-23T13:47:07.837Z,83.39
2023-11-23T13:49:36.806Z,81.74
2023-11-23T13:52:05.758Z,80.74
2023-11-23T13:54:45.413Z,80.48
2023-11-23T13:57:15.833Z,78.72
2023-11-23T13:59:43.234Z,78.27
2023-11-23T14:02:11.723Z,83.10
2023-11-23T14:04:44.300Z,79.25
2023-11-23T14:07:12.958Z,79.46
2023-11-23T14:09:41.510Z,79.89
2023-11-23T14:12:13.797Z,80.98
2023-11-23T14:14:42.982Z,79.66
2023-11-23T14:17:13.853Z,79.71
2023-11-23T14:19:44.437Z,86.66
2023-11-23T14:22:11.897Z,77.60
2023-11-23T14:24:40.248Z,80.88
2023-11-23T14:27:11.140Z,82.58
2023-11-23T14:29:39.308Z,78.04
2023-11-23T14:32:08.387Z,78.86
2023-11-23T14:34:37.036Z,79.87
2023-11-23T14:37:05.815Z,78.27
2023-11-23T14:39:33.274Z,78.54
2023-11-23T14:42:02.029Z,77.83
2023-11-23T14:44:29.882Z,78.24
2023-11-23T14:46:57.222Z,78.58
2023-11-23T14:49:31.746Z,78.55
2023-11-23T14:51:59.082Z,78.71
2023-11-23T14:54:34.666Z,80.06
2023-11-23T14:57:06.008Z,80.38
2023-11-23T14:59:37.156Z,80.51
2023-11-23T15:02:04.813Z,81.25
2023-11-23T15:04:34.654Z,80.81
2023-11-23T15:07:03.601Z,82.68
2023-11-23T15:09:32.380Z,82.11
2023-11-23T15:12:01.059Z,83.20
2023-11-23T15:14:29.444Z,79.46
2023-11-23T15:16:57.157Z,78.83
2023-11-23T15:19:24.535Z,78.50
2023-11-23T15:21:53.173Z,78.45
2023-11-23T15:24:22.257Z,78.67
2023-11-23T15:26:49.799Z,79.44
2023-11-23T15:29:18.944Z,80.07
2023-11-23T15:31:49.079Z,81.09
2023-11-23T15:34:18.653Z,82.04
2023-11-23T15:36:46.264Z,82.24
2023-11-23T15:39:15.299Z,82.39
2023-11-23T15:41:42.986Z,83.01
2023-11-23T15:44:11.446Z,82.67
2023-11-23T15:46:41.993Z,82.91
2023-11-23T15:49:15.051Z,84.16
2023-11-23T15:51:44.423Z,85.80
2023-11-23T15:54:13.857Z,83.98
2023-11-23T15:56:42.672Z,83.34
2023-11-23T15:59:10.585Z,83.69
2023-11-23T16:01:41.252Z,82.49
2023-11-23T16:04:11.375Z,82.90
2023-11-23T16:06:38.929Z,82.48
2023-11-23T16:09:16.921Z,81.98
2023-11-23T16:11:45.684Z,82.13
2023-11-23T16:14:13.097Z,82.09
2023-11-23T16:16:42.579Z,82.29
2023-11-23T16:19:11.158Z,83.05
2023-11-23T16:21:39.336Z,83.38
2023-11-23T16:24:11.549Z,84.65
2023-11-23T16:26:39.269Z,85.18
2023-11-23T16:29:11.421Z,89.38
2023-11-23T16:31:43.606Z,84.73
2023-11-23T16:34:14.300Z,86.87
2023-11-23T16:36:43.097Z,86.74
2023-11-23T16:39:16.650Z,86.42
2023-11-23T16:41:45.181Z,85.54
2023-11-23T16:44:13.450Z,85.28
2023-11-23T16:46:44.346Z,86.54
2023-11-23T16:49:16.786Z,87.71
2023-11-23T16:51:44.360Z,88.67
2023-11-23T16:56:43.074Z,88.23
2023-11-23T16:59:12.079Z,86.40
2023-11-23T17:01:42.108Z,87.07
2023-11-23T17:04:11.197Z,85.72
2023-11-23T17:06:41.627Z,85.75
2023-11-23T17:09:10.999Z,86.28
2023-11-23T17:11:41.601Z,86.29
2023-11-23T17:14:12.517Z,86.98
2023-11-23T17:16:44.126Z,87.35
2023-11-23T17:19:13.908Z,87.60
2023-11-23T17:21:49.815Z,87.59
2023-11-23T17:24:17.740Z,87.58
2023-11-23T17:26:45.686Z,87.33
2023-11-23T17:29:12.999Z,87.89
2023-11-23T17:31:43.216Z,88.24
2023-11-23T17:34:13.214Z,88.34
2023-11-23T17:36:40.981Z,87.75
2023-11-23T17:39:17.431Z,89.15
2023-11-23T17:41:46.129Z,90.08
2023-11-23T17:44:14.050Z,90.21
2023-11-23T17:46:41.407Z,89.87
2023-11-23T17:49:09.963Z,90.02
2023-11-23T17:51:40.143Z,90.11
2023-11-23T17:54:07.529Z,90.01
2023-11-23T17:56:42.209Z,89.81
2023-11-23T17:59:25.822Z,89.44
2023-11-23T18:02:04.642Z,89.00
2023-11-23T18:04:32.512Z,88.71
2023-11-23T18:07:02.451Z,88.15
2023-11-23T18:09:31.680Z,87.98
2023-11-23T18:12:01.646Z,88.30
2023-11-23T18:14:30.255Z,88.67
2023-11-23T18:16:57.807Z,88.61
2023-11-23T18:19:25.417Z,88.99
2023-11-23T18:21:52.756Z,89.34
2023-11-23T18:24:22.747Z,88.90
2023-11-23T18:26:50.484Z,88.51
2023-11-23T18:29:17.919Z,89.26
2023-11-23T18:31:45.754Z,89.93
2023-11-23T18:34:15.648Z,90.47
2023-11-23T18:36:51.135Z,90.69
2023-11-23T18:39:24.211Z,91.04
2023-11-23T18:41:52.074Z,91.13
2023-11-23T18:44:19.621Z,91.57
2023-11-23T18:46:46.981Z,91.91
2023-11-23T18:49:15.360Z,91.78
2023-11-23T18:51:42.990Z,92.00
2023-11-23T18:54:12.731Z,92.06
2023-11-23T18:56:45.302Z,91.42
2023-11-23T18:59:12.923Z,91.78
2023-11-23T19:01:40.936Z,91.66
2023-11-23T19:04:08.552Z,91.80
2023-11-23T19:06:36.270Z,92.05
2023-11-23T19:09:14.093Z,93.17
2023-11-23T19:11:42.755Z,92.07
2023-11-23T19:14:10.225Z,92.15
2023-11-23T19:16:37.548Z,92.01
2023-11-23T19:19:08.019Z,92.62
2023-11-23T19:21:35.738Z,92.74
2023-11-23T19:24:03.997Z,93.06
2023-11-23T19:26:31.773Z,93.26
2023-11-23T19:29:03.727Z,93.38
2023-11-23T19:31:32.014Z,93.72
2023-11-23T19:34:05.326Z,93.77
2023-11-23T19:36:35.677Z,93.63
2023-11-23T19:39:03.868Z,93.43
2023-11-23T19:41:32.040Z,93.60
2023-11-23T19:44:02.539Z,93.32
2023-11-23T19:46:37.119Z,93.27
2023-11-23T19:49:08.743Z,93.09
2023-11-23T19:51:37.392Z,93.17
2023-11-23T19:54:06.290Z,93.48
2023-11-23T19:56:34.850Z,93.54
2023-11-23T19:59:05.736Z,93.16
2023-11-23T20:01:34.065Z,93.06
2023-11-23T20:04:01.839Z,92.82
2023-11-23T20:06:29.313Z,92.66
2023-11-23T20:08:57.107Z,92.25
2023-11-23T20:11:24.952Z,91.86
2023-11-23T20:13:52.422Z,91.54
2023-11-23T20:16:33.333Z,91.92
2023-11-23T20:19:02.635Z,92.53
2023-11-23T20:21:30.010Z,93.04
2023-11-23T20:24:01.537Z,93.19
2023-11-23T20:26:35.764Z,92.89
2023-11-23T20:29:03.556Z,93.11
2023-11-23T20:31:37.951Z,92.76
2023-11-23T20:34:06.795Z,92.85
2023-11-23T20:36:34.435Z,92.96
2023-11-23T20:39:03.496Z,93.44
2023-11-23T20:41:32.129Z,93.49
2023-11-23T20:43:59.675Z,93.90
2023-11-23T20:46:27.011Z,94.00
2023-11-23T20:48:57.013Z,94.34
2023-11-23T20:51:24.705Z,95.25
2023-11-23T20:53:53.653Z,95.27
2023-11-23T20:56:25.952Z,95.61
2023-11-23T20:58:55.743Z,96.04
2023-11-23T21:01:25.394Z,96.15
2023-11-23T21:03:53.097Z,96.25
2023-11-23T21:06:26.281Z,95.73
2023-11-23T21:09:04.228Z,95.80
2023-11-23T21:11:31.846Z,95.35
2023-11-23T21:13:59.121Z,95.34
2023-11-23T21:16:29.492Z,95.38
2023-11-23T21:18:58.009Z,95.49
2023-11-23T21:21:25.493Z,95.86
2023-11-23T21:23:54.293Z,96.29
2023-11-23T21:26:21.903Z,97.03
2023-11-23T21:28:51.011Z,96.88
2023-11-23T21:31:18.300Z,97.45
2023-11-23T21:33:47.895Z,97.60
2023-11-23T21:36:15.234Z,97.60
2023-11-23T21:38:42.539Z,98.02
2023-11-23T21:41:16.408Z,98.01
2023-11-23T21:43:44.259Z,98.29
2023-11-23T21:46:18.763Z,98.40
2023-11-23T21:48:46.852Z,99.14
2023-11-23T21:51:24.175Z,99.32
2023-11-23T21:53:51.688Z,99.80
2023-11-23T21:56:20.030Z,99.83
2023-11-23T21:58:47.312Z,100.00
2023-11-23T22:01:14.632Z,100.00
2023-11-23T22:03:42.259Z,100.00
2023-11-23T22:06:10.507Z,100.00
2023-11-23T22:08:37.851Z,100.00
2023-11-23T22:11:07.662Z,100.00
2023-11-23T22:13:36.923Z,100.00
2023-11-23T22:16:04.982Z,100.00
2023-11-23T22:18:32.575Z,100.00
2023-11-23T22:20:59.946Z,100.00
2023-11-23T22:23:27.708Z,100.00
2023-11-23T22:25:55.143Z,100.00
2023-11-23T22:28:22.934Z,100.00
2023-11-23T22:30:50.901Z,100.00
2023-11-23T22:33:18.334Z,100.00
2023-11-23T22:35:45.851Z,100.00
2023-11-23T22:38:15.710Z,100.00
2023-11-23T22:40:43.595Z,100.00
2023-11-23T22:43:11.042Z,100.00
2023-11-23T22:45:40.192Z,100.00
2023-11-23T22:48:07.606Z,100.00
2023-11-23T22:50:34.917Z,100.00
2023-11-23T22:53:02.552Z,100.00
2023-11-23T22:55:29.972Z,100.00
2023-11-23T22:57:57.354Z,100.00
2023-11-23T23:00:37.280Z,100.00
2023-11-23T23:03:05.100Z,100.00
2023-11-23T23:05:33.138Z,100.00
2023-11-23T23:08:03.570Z,100.00
2023-11-23T23:10:31.805Z,100.00
2023-11-23T23:12:59.539Z,100.00
2023-11-23T23:15:27.151Z,100.00
2023-11-23T23:17:55.754Z,100.00
2023-11-23T23:20:23.574Z,100.00
2023-11-23T23:22:52.079Z,100.00
2023-11-23T23:25:19.385Z,100.00
2023-11-23T23:27:47.035Z,100.00
2023-11-23T23:30:14.367Z,100.00
2023-11-23T23:32:42.358Z,100.00
2023-11-23T23:35:10.906Z,100.00
2023-11-23T23:37:39.248Z,99.08
2023-11-23T23:40:08.405Z,98.06
2023-11-23T23:42:51.027Z,98.47
2023-11-23T23:45:18.791Z,98.27
2023-11-23T23:47:46.474Z,98.25
2023-11-23T23:50:13.994Z,97.90
2023-11-23T23:52:41.816Z,97.53
2023-11-23T23:55:09.615Z,96.86
2023-11-23T23:57:38.038Z,96.37
